Startpagina
METAR-TAF:

METAR-TAF

Vliegvelden :

Aéroport Grenoble Alpes Isère

Grenoble, Frankrijk

breedte: 45-22N, lengte: 005-20E, hoogte: 384 m

Actueel weer

Dit bericht is 39 minuten geleden gemaakt, om 12:00 UTC
Wind 4 kt uit het zuidzuidwesten, variërend tussen het oosten en het westen
Temperatuur 30°C
Vochtigheid 43%
Druk 1022 hPa
Zicht 10 km of meer
Weinig wolken op 5600 ft

METAR: LFLS 211200Z AUTO 20004KT 100V260 9999 FEW056 30/16 Q1022 NOSIG

Tijdstip: 14:39 (12:39 UTC)

Verwachting

Dit bericht is 4 uur en het 39 minuten geleden gemaakt, om 08:00 UTC
Verwachting geldig van 21 om 09 UTC tot 22 om 09 UTC
Wind 5 kt uit het zuidwesten
Zicht 10 km of meer
geen wolken onder 1500 m en geen cumulonimbus

TAF: LFLS 210800Z 2109/2209 23005KT CAVOK

Waarnemingen en weersverwachtingen van meer dan 4000 vliegvelden (METAR en TAF).

De beschikbare stations zijn de gele en rode punten op de kaart.

Ga met uw muis naar het station om de naam te zien.

Klik dan om waarnemingen en weersverwachtingen te zien.

kaart wijzigen: klik op de groene knoppen met een zwart kruis om in te zoomen, op de groene knop met een streepje om uit te zoomen of op de groene pijlen voor aangrenzende kaarten.


METAR-TAF: